sensor_id;sensor_type;location;lat;lon;timestamp;temperature;humidity
74155;DHT22;62509;46.248;6.018;2024-03-23T00:56:03;13.40;70.40
74155;DHT22;62509;46.248;6.018;2024-03-23T01:01:05;13.30;70.60
74155;DHT22;62509;46.248;6.018;2024-03-23T01:06:08;13.20;70.60
74155;DHT22;62509;46.248;6.018;2024-03-23T01:11:11;13.10;70.60
74155;DHT22;62509;46.248;6.018;2024-03-23T01:16:13;13.10;70.70
74155;DHT22;62509;46.248;6.018;2024-03-23T01:21:16;13.10;70.70
74155;DHT22;62509;46.248;6.018;2024-03-23T01:26:19;13.10;70.60
74155;DHT22;62509;46.248;6.018;2024-03-23T01:31:21;13.10;70.60
74155;DHT22;62509;46.248;6.018;2024-03-23T01:36:24;13.20;70.50
74155;DHT22;62509;46.248;6.018;2024-03-23T01:41:27;13.30;70.50
74155;DHT22;62509;46.248;6.018;2024-03-23T01:46:29;13.30;70.30
74155;DHT22;62509;46.248;6.018;2024-03-23T01:51:32;13.40;70.30
74155;DHT22;62509;46.248;6.018;2024-03-23T01:56:35;13.40;70.30
74155;DHT22;62509;46.248;6.018;2024-03-23T02:01:38;13.40;70.30
74155;DHT22;62509;46.248;6.018;2024-03-23T02:06:40;13.40;70.30
74155;DHT22;62509;46.248;6.018;2024-03-23T02:11:43;13.30;70.30
74155;DHT22;62509;46.248;6.018;2024-03-23T02:16:46;13.30;70.40
74155;DHT22;62509;46.248;6.018;2024-03-23T02:21:48;13.30;70.40
74155;DHT22;62509;46.248;6.018;2024-03-23T02:26:51;13.40;70.40
74155;DHT22;62509;46.248;6.018;2024-03-23T02:31:54;13.50;70.40
74155;DHT22;62509;46.248;6.018;2024-03-23T02:36:56;13.60;70.40
74155;DHT22;62509;46.248;6.018;2024-03-23T02:42:00;13.70;70.30
74155;DHT22;62509;46.248;6.018;2024-03-23T02:47:02;13.90;70.30
74155;DHT22;62509;46.248;6.018;2024-03-23T02:52:05;14.00;70.20
74155;DHT22;62509;46.248;6.018;2024-03-23T02:57:09;14.20;70.10
74155;DHT22;62509;46.248;6.018;2024-03-23T03:02:11;14.30;70.00
74155;DHT22;62509;46.248;6.018;2024-03-23T03:07:14;14.40;70.00
74155;DHT22;62509;46.248;6.018;2024-03-23T03:12:18;14.50;69.90
74155;DHT22;62509;46.248;6.018;2024-03-23T03:17:20;14.50;69.90
74155;DHT22;62509;46.248;6.018;2024-03-23T03:22:24;14.60;69.80
74155;DHT22;62509;46.248;6.018;2024-03-23T03:27:27;14.70;69.80
74155;DHT22;62509;46.248;6.018;2024-03-23T03:32:30;14.70;69.80
74155;DHT22;62509;46.248;6.018;2024-03-23T03:37:32;14.70;69.80
74155;DHT22;62509;46.248;6.018;2024-03-23T03:42:36;14.80;69.80
74155;DHT22;62509;46.248;6.018;2024-03-23T03:47:38;14.80;69.70
74155;DHT22;62509;46.248;6.018;2024-03-23T03:52:40;14.90;69.70
74155;DHT22;62509;46.248;6.018;2024-03-23T03:57:44;14.90;69.70
74155;DHT22;62509;46.248;6.018;2024-03-23T04:02:46;15.00;69.70
74155;DHT22;62509;46.248;6.018;2024-03-23T04:07:48;15.00;69.70
74155;DHT22;62509;46.248;6.018;2024-03-23T04:12:52;15.00;69.60
74155;DHT22;62509;46.248;6.018;2024-03-23T04:17:54;15.00;69.70
74155;DHT22;62509;46.248;6.018;2024-03-23T04:22:56;15.10;69.70
74155;DHT22;62509;46.248;6.018;2024-03-23T04:28:00;15.10;69.70
74155;DHT22;62509;46.248;6.018;2024-03-23T04:33:02;15.10;69.70
74155;DHT22;62509;46.248;6.018;2024-03-23T04:38:05;15.10;69.70
74155;DHT22;62509;46.248;6.018;2024-03-23T04:43:09;15.00;69.70
74155;DHT22;62509;46.248;6.018;2024-03-23T04:48:11;15.00;69.90
74155;DHT22;62509;46.248;6.018;2024-03-23T04:53:14;15.10;69.90
74155;DHT22;62509;46.248;6.018;2024-03-23T04:58:17;15.10;69.90
74155;DHT22;62509;46.248;6.018;2024-03-23T05:03:20;15.00;69.80
74155;DHT22;62509;46.248;6.018;2024-03-23T05:08:22;14.90;69.80
74155;DHT22;62509;46.248;6.018;2024-03-23T05:13:25;14.60;69.90
74155;DHT22;62509;46.248;6.018;2024-03-23T05:18:28;14.40;70.10
74155;DHT22;62509;46.248;6.018;2024-03-23T05:23:30;14.10;70.40
74155;DHT22;62509;46.248;6.018;2024-03-23T05:28:33;14.10;70.80
74155;DHT22;62509;46.248;6.018;2024-03-23T05:33:36;14.10;70.70
74155;DHT22;62509;46.248;6.018;2024-03-23T05:38:41;14.10;70.60
74155;DHT22;62509;46.248;6.018;2024-03-23T05:43:44;14.20;70.60
74155;DHT22;62509;46.248;6.018;2024-03-23T05:48:46;14.10;70.60
74155;DHT22;62509;46.248;6.018;2024-03-23T05:53:49;14.10;70.60
74155;DHT22;62509;46.248;6.018;2024-03-23T05:58:53;14.10;70.70
74155;DHT22;62509;46.248;6.018;2024-03-23T06:03:55;14.10;70.50
74155;DHT22;62509;46.248;6.018;2024-03-23T06:08:57;14.10;70.50
74155;DHT22;62509;46.248;6.018;2024-03-23T06:14:00;14.00;70.50
74155;DHT22;62509;46.248;6.018;2024-03-23T06:19:03;14.00;70.40
74155;DHT22;62509;46.248;6.018;2024-03-23T06:24:07;14.00;70.90
74155;DHT22;62509;46.248;6.018;2024-03-23T06:29:10;14.00;70.40
74155;DHT22;62509;46.248;6.018;2024-03-23T06:34:13;14.00;70.50
74155;DHT22;62509;46.248;6.018;2024-03-23T06:39:16;14.00;70.20
74155;DHT22;62509;46.248;6.018;2024-03-23T06:44:19;14.00;70.30
74155;DHT22;62509;46.248;6.018;2024-03-23T06:49:22;13.90;70.30
74155;DHT22;62509;46.248;6.018;2024-03-23T06:54:25;13.80;70.30
74155;DHT22;62509;46.248;6.018;2024-03-23T06:59:29;13.80;70.30
74155;DHT22;62509;46.248;6.018;2024-03-23T07:04:31;13.70;70.30
74155;DHT22;62509;46.248;6.018;2024-03-23T07:09:33;13.70;70.40
74155;DHT22;62509;46.248;6.018;2024-03-23T07:14:37;13.70;70.30
74155;DHT22;62509;46.248;6.018;2024-03-23T07:19:39;13.60;70.20
74155;DHT22;62509;46.248;6.018;2024-03-23T07:24:41;13.50;70.40
74155;DHT22;62509;46.248;6.018;2024-03-23T07:29:45;13.40;70.40
74155;DHT22;62509;46.248;6.018;2024-03-23T07:34:47;13.40;70.50
74155;DHT22;62509;46.248;6.018;2024-03-23T07:39:49;13.20;70.30
74155;DHT22;62509;46.248;6.018;2024-03-23T07:44:53;13.00;70.30
74155;DHT22;62509;46.248;6.018;2024-03-23T07:49:57;12.80;70.50
74155;DHT22;62509;46.248;6.018;2024-03-23T07:54:59;12.50;70.70
74155;DHT22;62509;46.248;6.018;2024-03-23T08:00:03;12.30;70.70
74155;DHT22;62509;46.248;6.018;2024-03-23T08:05:07;12.20;70.80
74155;DHT22;62509;46.248;6.018;2024-03-23T08:10:09;12.10;70.70
74155;DHT22;62509;46.248;6.018;2024-03-23T08:15:14;12.00;70.80
74155;DHT22;62509;46.248;6.018;2024-03-23T08:20:17;12.00;71.00
74155;DHT22;62509;46.248;6.018;2024-03-23T08:25:19;12.10;70.90
74155;DHT22;62509;46.248;6.018;2024-03-23T08:30:22;12.20;70.80
74155;DHT22;62509;46.248;6.018;2024-03-23T08:35:25;12.20;70.70
74155;DHT22;62509;46.248;6.018;2024-03-23T08:40:27;12.30;70.70
74155;DHT22;62509;46.248;6.018;2024-03-23T08:45:30;12.40;70.70
74155;DHT22;62509;46.248;6.018;2024-03-23T08:50:33;12.50;70.50
74155;DHT22;62509;46.248;6.018;2024-03-23T08:55:35;12.70;70.60
74155;DHT22;62509;46.248;6.018;2024-03-23T09:00:39;12.80;70.20
74155;DHT22;62509;46.248;6.018;2024-03-23T09:05:41;12.80;70.10
74155;DHT22;62509;46.248;6.018;2024-03-23T09:10:43;12.90;70.00
74155;DHT22;62509;46.248;6.018;2024-03-23T09:15:47;12.80;69.90
74155;DHT22;62509;46.248;6.018;2024-03-23T09:20:50;12.70;70.10
74155;DHT22;62509;46.248;6.018;2024-03-23T09:25:53;12.70;70.00
74155;DHT22;62509;46.248;6.018;2024-03-23T09:31:03;12.70;69.90
74155;DHT22;62509;46.248;6.018;2024-03-23T09:36:05;12.50;69.70
74155;DHT22;62509;46.248;6.018;2024-03-23T09:41:08;12.20;69.80
74155;DHT22;62509;46.248;6.018;2024-03-23T09:46:12;12.10;70.20
74155;DHT22;62509;46.248;6.018;2024-03-23T09:51:14;12.20;70.30
74155;DHT22;62509;46.248;6.018;2024-03-23T09:56:16;12.20;70.00
74155;DHT22;62509;46.248;6.018;2024-03-23T10:01:20;12.30;70.00
74155;DHT22;62509;46.248;6.018;2024-03-23T10:06:22;12.30;69.80
74155;DHT22;62509;46.248;6.018;2024-03-23T10:11:26;12.40;69.80
74155;DHT22;62509;46.248;6.018;2024-03-23T10:16:31;12.50;69.60
74155;DHT22;62509;46.248;6.018;2024-03-23T10:21:33;12.60;69.50
74155;DHT22;62509;46.248;6.018;2024-03-23T10:26:35;12.60;69.30
74155;DHT22;62509;46.248;6.018;2024-03-23T10:31:39;12.50;69.30
74155;DHT22;62509;46.248;6.018;2024-03-23T10:36:42;12.50;69.40
74155;DHT22;62509;46.248;6.018;2024-03-23T10:41:45;12.60;69.40
74155;DHT22;62509;46.248;6.018;2024-03-23T10:46:49;12.60;69.30
74155;DHT22;62509;46.248;6.018;2024-03-23T10:51:51;12.70;69.20
74155;DHT22;62509;46.248;6.018;2024-03-23T10:56:55;12.70;69.00
74155;DHT22;62509;46.248;6.018;2024-03-23T11:02:01;12.60;69.50
74155;DHT22;62509;46.248;6.018;2024-03-23T11:07:06;12.60;69.10
74155;DHT22;62509;46.248;6.018;2024-03-23T11:12:33;12.60;69.10
74155;DHT22;62509;46.248;6.018;2024-03-23T11:17:37;12.70;69.00
74155;DHT22;62509;46.248;6.018;2024-03-23T11:22:40;12.80;68.90
74155;DHT22;62509;46.248;6.018;2024-03-23T11:27:43;13.00;68.80
74155;DHT22;62509;46.248;6.018;2024-03-23T11:32:49;13.20;68.60
74155;DHT22;62509;46.248;6.018;2024-03-23T11:38:04;13.30;68.40
74155;DHT22;62509;46.248;6.018;2024-03-23T11:43:07;13.40;68.30
74155;DHT22;62509;46.248;6.018;2024-03-23T11:48:13;13.40;68.30
74155;DHT22;62509;46.248;6.018;2024-03-23T11:53:16;13.50;68.20
74155;DHT22;62509;46.248;6.018;2024-03-23T11:58:20;13.60;68.10
74155;DHT22;62509;46.248;6.018;2024-03-23T12:03:25;13.70;68.00
74155;DHT22;62509;46.248;6.018;2024-03-23T12:08:29;13.60;68.00
74155;DHT22;62509;46.248;6.018;2024-03-23T12:13:32;13.60;68.10
74155;DHT22;62509;46.248;6.018;2024-03-23T12:18:36;13.60;67.90
74155;DHT22;62509;46.248;6.018;2024-03-23T12:23:38;13.60;67.90
74155;DHT22;62509;46.248;6.018;2024-03-23T12:28:41;13.60;67.90
74155;DHT22;62509;46.248;6.018;2024-03-23T12:33:45;13.80;67.70
74155;DHT22;62509;46.248;6.018;2024-03-23T12:38:47;13.70;67.50
74155;DHT22;62509;46.248;6.018;2024-03-23T12:43:49;13.60;67.50
74155;DHT22;62509;46.248;6.018;2024-03-23T12:48:53;13.60;67.60
74155;DHT22;62509;46.248;6.018;2024-03-23T12:53:55;13.60;67.60
74155;DHT22;62509;46.248;6.018;2024-03-23T12:58:57;13.80;67.60
74155;DHT22;62509;46.248;6.018;2024-03-23T13:04:01;13.90;67.30
74155;DHT22;62509;46.248;6.018;2024-03-23T13:09:03;13.90;67.20
74155;DHT22;62509;46.248;6.018;2024-03-23T13:14:05;13.90;67.20
74155;DHT22;62509;46.248;6.018;2024-03-23T13:19:09;14.00;67.10
74155;DHT22;62509;46.248;6.018;2024-03-23T13:24:11;14.10;67.00
74155;DHT22;62509;46.248;6.018;2024-03-23T13:29:13;14.20;66.90
74155;DHT22;62509;46.248;6.018;2024-03-23T13:34:17;14.10;66.80
74155;DHT22;62509;46.248;6.018;2024-03-23T13:39:20;14.10;66.80
74155;DHT22;62509;46.248;6.018;2024-03-23T13:44:22;14.00;66.90
74155;DHT22;62509;46.248;6.018;2024-03-23T13:49:26;14.10;66.90
74155;DHT22;62509;46.248;6.018;2024-03-23T13:54:29;14.10;66.80
74155;DHT22;62509;46.248;6.018;2024-03-23T13:59:31;14.20;66.70
74155;DHT22;62509;46.248;6.018;2024-03-23T14:04:35;14.20;66.60
74155;DHT22;62509;46.248;6.018;2024-03-23T14:09:38;14.20;66.60
74155;DHT22;62509;46.248;6.018;2024-03-23T14:14:41;14.00;66.40
74155;DHT22;62509;46.248;6.018;2024-03-23T14:19:44;13.80;66.70
74155;DHT22;62509;46.248;6.018;2024-03-23T14:24:46;13.80;66.70
74155;DHT22;62509;46.248;6.018;2024-03-23T14:29:49;13.70;66.60
74155;DHT22;62509;46.248;6.018;2024-03-23T14:34:52;13.60;66.60
74155;DHT22;62509;46.248;6.018;2024-03-23T14:39:55;13.50;66.60
74155;DHT22;62509;46.248;6.018;2024-03-23T14:44:57;13.40;66.50
74155;DHT22;62509;46.248;6.018;2024-03-23T14:50:01;13.20;66.60
74155;DHT22;62509;46.248;6.018;2024-03-23T14:55:03;13.10;66.70
74155;DHT22;62509;46.248;6.018;2024-03-23T15:00:09;13.10;66.70
74155;DHT22;62509;46.248;6.018;2024-03-23T15:05:14;13.00;66.60
74155;DHT22;62509;46.248;6.018;2024-03-23T15:10:16;13.00;66.60
74155;DHT22;62509;46.248;6.018;2024-03-23T15:15:18;13.00;66.60
74155;DHT22;62509;46.248;6.018;2024-03-23T15:20:22;13.10;66.60
74155;DHT22;62509;46.248;6.018;2024-03-23T15:25:24;13.20;66.40
74155;DHT22;62509;46.248;6.018;2024-03-23T15:30:26;13.40;66.30
74155;DHT22;62509;46.248;6.018;2024-03-23T15:35:30;13.50;66.10
74155;DHT22;62509;46.248;6.018;2024-03-23T15:40:32;13.60;66.00
74155;DHT22;62509;46.248;6.018;2024-03-23T15:45:35;13.70;66.00
74155;DHT22;62509;46.248;6.018;2024-03-23T15:50:38;13.80;65.80
74155;DHT22;62509;46.248;6.018;2024-03-23T15:55:40;13.90;65.80
74155;DHT22;62509;46.248;6.018;2024-03-23T16:00:42;13.90;65.70
74155;DHT22;62509;46.248;6.018;2024-03-23T16:05:50;13.80;65.60
74155;DHT22;62509;46.248;6.018;2024-03-23T16:10:53;13.80;65.70
74155;DHT22;62509;46.248;6.018;2024-03-23T16:15:57;13.60;65.50
74155;DHT22;62509;46.248;6.018;2024-03-23T16:21:01;13.60;65.80
74155;DHT22;62509;46.248;6.018;2024-03-23T16:26:04;13.70;65.70
74155;DHT22;62509;46.248;6.018;2024-03-23T16:31:06;13.60;65.50
74155;DHT22;62509;46.248;6.018;2024-03-23T16:36:11;13.60;65.60
74155;DHT22;62509;46.248;6.018;2024-03-23T16:41:13;13.60;65.50
74155;DHT22;62509;46.248;6.018;2024-03-23T16:46:16;13.40;65.50
74155;DHT22;62509;46.248;6.018;2024-03-23T16:51:20;13.40;65.50
74155;DHT22;62509;46.248;6.018;2024-03-23T16:56:22;13.30;65.50
74155;DHT22;62509;46.248;6.018;2024-03-23T17:01:24;13.20;65.50
74155;DHT22;62509;46.248;6.018;2024-03-23T17:06:29;13.10;65.50
74155;DHT22;62509;46.248;6.018;2024-03-23T17:11:31;13.00;65.50
74155;DHT22;62509;46.248;6.018;2024-03-23T17:16:33;13.00;65.40
74155;DHT22;62509;46.248;6.018;2024-03-23T17:21:37;13.00;65.40
74155;DHT22;62509;46.248;6.018;2024-03-23T17:26:41;12.90;65.40
74155;DHT22;62509;46.248;6.018;2024-03-23T17:31:43;12.80;65.50
74155;DHT22;62509;46.248;6.018;2024-03-23T17:36:46;12.70;65.30
74155;DHT22;62509;46.248;6.018;2024-03-23T17:41:48;12.70;65.40
74155;DHT22;62509;46.248;6.018;2024-03-23T17:46:51;12.60;65.30
74155;DHT22;62509;46.248;6.018;2024-03-23T17:51:57;12.60;65.30
74155;DHT22;62509;46.248;6.018;2024-03-23T17:57:00;12.50;65.30
74155;DHT22;62509;46.248;6.018;2024-03-23T18:02:03;12.50;65.30
74155;DHT22;62509;46.248;6.018;2024-03-23T18:07:06;12.40;65.30
74155;DHT22;62509;46.248;6.018;2024-03-23T18:12:09;12.30;65.30
74155;DHT22;62509;46.248;6.018;2024-03-23T18:17:11;12.30;65.30
74155;DHT22;62509;46.248;6.018;2024-03-23T18:22:16;12.20;65.20
74155;DHT22;62509;46.248;6.018;2024-03-23T18:27:18;12.20;65.30
74155;DHT22;62509;46.248;6.018;2024-03-23T18:32:20;12.10;65.20
74155;DHT22;62509;46.248;6.018;2024-03-23T18:37:24;12.00;65.20
74155;DHT22;62509;46.248;6.018;2024-03-23T18:42:26;12.00;65.30
74155;DHT22;62509;46.248;6.018;2024-03-23T18:47:28;12.00;65.20
74155;DHT22;62509;46.248;6.018;2024-03-23T18:52:31;12.00;65.10
74155;DHT22;62509;46.248;6.018;2024-03-23T18:57:34;12.00;65.10
74155;DHT22;62509;46.248;6.018;2024-03-23T19:02:36;12.00;65.10
74155;DHT22;62509;46.248;6.018;2024-03-23T19:07:39;12.00;65.00
74155;DHT22;62509;46.248;6.018;2024-03-23T19:12:42;11.90;65.00
74155;DHT22;62509;46.248;6.018;2024-03-23T19:17:44;11.90;65.00
74155;DHT22;62509;46.248;6.018;2024-03-23T19:22:47;11.90;64.90
74155;DHT22;62509;46.248;6.018;2024-03-23T19:27:50;11.80;64.70
74155;DHT22;62509;46.248;6.018;2024-03-23T19:32:52;11.80;64.80
74155;DHT22;62509;46.248;6.018;2024-03-23T19:37:57;11.80;64.90
74155;DHT22;62509;46.248;6.018;2024-03-23T19:42:59;11.90;64.90
74155;DHT22;62509;46.248;6.018;2024-03-23T19:48:02;11.90;64.80
74155;DHT22;62509;46.248;6.018;2024-03-23T19:53:06;11.90;64.70
74155;DHT22;62509;46.248;6.018;2024-03-23T19:58:08;11.90;65.10
74155;DHT22;62509;46.248;6.018;2024-03-23T20:03:10;11.90;64.50
74155;DHT22;62509;46.248;6.018;2024-03-23T20:08:14;11.80;64.60
74155;DHT22;62509;46.248;6.018;2024-03-23T20:13:16;11.80;64.60
74155;DHT22;62509;46.248;6.018;2024-03-23T20:18:18;11.90;64.50
74155;DHT22;62509;46.248;6.018;2024-03-23T20:23:22;11.90;64.50
74155;DHT22;62509;46.248;6.018;2024-03-23T20:28:24;11.90;64.50
74155;DHT22;62509;46.248;6.018;2024-03-23T20:33:27;11.80;64.40
74155;DHT22;62509;46.248;6.018;2024-03-23T20:38:30;11.80;64.30
74155;DHT22;62509;46.248;6.018;2024-03-23T20:43:33;11.80;64.30
74155;DHT22;62509;46.248;6.018;2024-03-23T20:48:35;11.70;64.30
74155;DHT22;62509;46.248;6.018;2024-03-23T20:53:42;11.60;64.30
74155;DHT22;62509;46.248;6.018;2024-03-23T20:58:44;11.60;64.20
74155;DHT22;62509;46.248;6.018;2024-03-23T21:03:47;11.60;64.30
74155;DHT22;62509;46.248;6.018;2024-03-23T21:08:50;11.60;64.20
74155;DHT22;62509;46.248;6.018;2024-03-23T21:13:52;11.50;64.00
74155;DHT22;62509;46.248;6.018;2024-03-23T21:18:54;11.40;64.10
74155;DHT22;62509;46.248;6.018;2024-03-23T21:23:58;11.30;64.10
74155;DHT22;62509;46.248;6.018;2024-03-23T21:29:01;11.30;64.10
74155;DHT22;62509;46.248;6.018;2024-03-23T21:34:03;11.20;64.10
74155;DHT22;62509;46.248;6.018;2024-03-23T21:39:06;11.30;64.10
74155;DHT22;62509;46.248;6.018;2024-03-23T21:44:09;11.30;64.10
74155;DHT22;62509;46.248;6.018;2024-03-23T21:49:11;11.30;63.90
74155;DHT22;62509;46.248;6.018;2024-03-23T21:54:14;11.30;63.90
74155;DHT22;62509;46.248;6.018;2024-03-23T21:59:17;11.30;63.90
74155;DHT22;62509;46.248;6.018;2024-03-23T22:04:20;11.30;63.80
74155;DHT22;62509;46.248;6.018;2024-03-23T22:09:23;11.30;63.70
74155;DHT22;62509;46.248;6.018;2024-03-23T22:14:25;11.30;63.70
74155;DHT22;62509;46.248;6.018;2024-03-23T22:19:27;11.30;63.70
74155;DHT22;62509;46.248;6.018;2024-03-23T22:24:32;11.20;63.70
74155;DHT22;62509;46.248;6.018;2024-03-23T22:29:34;11.20;63.80
74155;DHT22;62509;46.248;6.018;2024-03-23T22:34:36;11.20;63.70
74155;DHT22;62509;46.248;6.018;2024-03-23T22:39:42;11.20;63.70
74155;DHT22;62509;46.248;6.018;2024-03-23T22:44:45;11.20;63.70
74155;DHT22;62509;46.248;6.018;2024-03-23T22:49:47;11.20;63.70
74155;DHT22;62509;46.248;6.018;2024-03-23T22:54:51;11.30;63.70
74155;DHT22;62509;46.248;6.018;2024-03-23T22:59:53;11.30;63.70
74155;DHT22;62509;46.248;6.018;2024-03-23T23:04:55;11.30;63.60
74155;DHT22;62509;46.248;6.018;2024-03-23T23:09:59;11.20;63.50
74155;DHT22;62509;46.248;6.018;2024-03-23T23:15:01;11.30;63.60
74155;DHT22;62509;46.248;6.018;2024-03-23T23:20:03;11.30;63.50
74155;DHT22;62509;46.248;6.018;2024-03-23T23:25:08;11.20;63.50
74155;DHT22;62509;46.248;6.018;2024-03-23T23:30:11;11.20;63.50
74155;DHT22;62509;46.248;6.018;2024-03-23T23:35:13;11.20;63.50
74155;DHT22;62509;46.248;6.018;2024-03-23T23:40:17;11.10;63.40
74155;DHT22;62509;46.248;6.018;2024-03-23T23:45:19;11.10;63.40
74155;DHT22;62509;46.248;6.018;2024-03-23T23:50:21;11.10;63.40
74155;DHT22;62509;46.248;6.018;2024-03-23T23:55:25;11.10;63.50
